createdAt,value
2022-10-16T00:00:39.376Z,87.74
2022-10-16T00:03:07.001Z,88.17
2022-10-16T00:05:34.463Z,87.67
2022-10-16T00:08:01.223Z,88.00
2022-10-16T00:10:27.864Z,88.43
2022-10-16T00:12:54.474Z,88.13
2022-10-16T00:15:21.200Z,88.39
2022-10-16T00:17:47.834Z,88.50
2022-10-16T00:20:14.416Z,88.69
2022-10-16T00:22:41.226Z,89.24
2022-10-16T00:25:08.189Z,89.35
2022-10-16T00:27:35.307Z,89.44
2022-10-16T00:30:02.000Z,89.47
2022-10-16T00:32:28.998Z,89.36
2022-10-16T00:34:55.764Z,89.38
2022-10-16T00:37:22.368Z,89.39
2022-10-16T00:39:49.004Z,89.45
2022-10-16T00:42:19.480Z,89.61
2022-10-16T00:44:53.470Z,89.45
2022-10-16T00:47:25.226Z,89.55
2022-10-16T00:49:56.954Z,89.62
2022-10-16T00:52:23.744Z,90.15
2022-10-16T00:54:51.824Z,90.10
2022-10-16T00:57:18.592Z,90.45
2022-10-16T00:59:46.062Z,90.49
2022-10-16T01:02:15.955Z,90.64
2022-10-16T01:04:53.326Z,91.66
2022-10-16T01:07:27.430Z,91.74
2022-10-16T01:10:00.416Z,92.21
2022-10-16T01:12:44.234Z,92.34
2022-10-16T01:15:29.040Z,92.54
2022-10-16T01:18:07.189Z,93.38
2022-10-16T01:20:41.048Z,93.68
2022-10-16T01:23:26.241Z,93.86
2022-10-16T01:26:31.403Z,94.59
2022-10-16T01:29:18.044Z,94.32
2022-10-16T01:31:51.414Z,94.78
2022-10-16T01:34:24.904Z,94.86
2022-10-16T01:36:57.440Z,94.84
2022-10-16T01:39:29.302Z,95.12
2022-10-16T01:42:00.421Z,95.15
2022-10-16T01:44:32.184Z,94.26
2022-10-16T01:47:00.445Z,94.78
2022-10-16T01:49:32.290Z,94.80
2022-10-16T01:54:34.414Z,94.47
2022-10-16T01:57:02.296Z,94.67
2022-10-16T01:59:32.784Z,94.50
2022-10-16T02:02:07.711Z,94.88
2022-10-16T02:04:39.555Z,94.88
2022-10-16T02:07:06.451Z,95.48
2022-10-16T02:09:35.584Z,96.01
2022-10-16T02:12:10.461Z,96.35
2022-10-16T02:14:39.430Z,96.82
2022-10-16T02:17:15.232Z,97.04
2022-10-16T02:19:42.937Z,97.33
2022-10-16T02:22:16.146Z,97.68
2022-10-16T02:24:51.564Z,98.06
2022-10-16T02:27:43.202Z,97.92
2022-10-16T02:30:20.495Z,98.18
2022-10-16T02:32:50.308Z,98.56
2022-10-16T02:35:19.743Z,98.56
2022-10-16T02:37:47.896Z,99.27
2022-10-16T02:40:14.890Z,99.71
2022-10-16T02:42:42.051Z,99.31
2022-10-16T02:45:11.292Z,99.56
2022-10-16T02:47:38.316Z,99.39
2022-10-16T02:50:05.462Z,98.93
2022-10-16T02:52:32.025Z,99.18
2022-10-16T02:54:58.610Z,99.27
2022-10-16T02:57:25.553Z,99.48
2022-10-16T02:59:52.472Z,99.66
2022-10-16T03:02:19.304Z,99.72
2022-10-16T03:04:45.925Z,99.43
2022-10-16T03:07:12.596Z,99.83
2022-10-16T03:09:39.201Z,99.54
2022-10-16T03:12:06.040Z,99.65
2022-10-16T03:14:32.694Z,99.90
2022-10-16T03:16:59.285Z,99.13
2022-10-16T03:19:25.830Z,99.51
2022-10-16T03:21:52.512Z,99.58
2022-10-16T03:24:19.162Z,100.00
2022-10-16T03:26:45.838Z,100.00
2022-10-16T03:29:12.391Z,100.00
2022-10-16T03:31:38.993Z,100.00
2022-10-16T03:34:05.643Z,99.91
2022-10-16T03:36:32.308Z,100.00
2022-10-16T03:38:58.924Z,100.00
2022-10-16T03:41:25.530Z,100.00
2022-10-16T03:43:52.197Z,100.00
2022-10-16T03:46:18.778Z,100.00
2022-10-16T03:48:45.344Z,100.00
2022-10-16T03:51:11.919Z,100.00
2022-10-16T03:53:38.595Z,100.00
2022-10-16T03:56:05.406Z,100.00
2022-10-16T03:58:32.045Z,100.00
2022-10-16T04:00:58.676Z,100.00
2022-10-16T04:03:25.392Z,100.00
2022-10-16T04:05:52.125Z,100.00
2022-10-16T04:08:19.405Z,100.00
2022-10-16T04:10:46.368Z,100.00
2022-10-16T04:13:13.571Z,100.00
2022-10-16T04:15:40.320Z,100.00
2022-10-16T04:18:07.232Z,100.00
2022-10-16T04:20:34.684Z,100.00
2022-10-16T04:23:01.586Z,100.00
2022-10-16T04:25:28.334Z,100.00
2022-10-16T04:27:55.310Z,100.00
2022-10-16T04:30:23.911Z,100.00
2022-10-16T04:32:52.272Z,100.00
2022-10-16T04:35:20.506Z,100.00
2022-10-16T04:37:47.448Z,100.00
2022-10-16T04:40:14.597Z,100.00
2022-10-16T04:42:41.786Z,100.00
2022-10-16T04:45:12.020Z,100.00
2022-10-16T04:47:41.585Z,100.00
2022-10-16T04:50:08.659Z,100.00
2022-10-16T04:55:07.273Z,100.00
2022-10-16T04:57:34.452Z,100.00
2022-10-16T05:00:01.519Z,100.00
2022-10-16T05:02:28.260Z,100.00
2022-10-16T05:04:54.900Z,100.00
2022-10-16T05:07:21.545Z,100.00
2022-10-16T05:09:48.172Z,100.00
2022-10-16T05:12:14.806Z,100.00
2022-10-16T05:14:41.884Z,100.00
2022-10-16T05:17:08.474Z,100.00
2022-10-16T05:19:35.142Z,100.00
2022-10-16T05:22:01.774Z,100.00
2022-10-16T05:24:28.404Z,100.00
2022-10-16T05:26:55.063Z,100.00
2022-10-16T05:29:22.104Z,100.00
2022-10-16T05:31:52.887Z,100.00
2022-10-16T05:34:19.761Z,100.00
2022-10-16T05:36:47.385Z,100.00
2022-10-16T05:39:16.053Z,100.00
2022-10-16T05:41:42.841Z,100.00
2022-10-16T05:44:09.641Z,100.00
2022-10-16T05:46:36.253Z,100.00
2022-10-16T05:49:03.158Z,100.00
2022-10-16T05:51:29.793Z,100.00
2022-10-16T05:53:56.443Z,99.70
2022-10-16T05:56:23.033Z,99.81
2022-10-16T05:58:49.609Z,99.04
2022-10-16T06:01:21.792Z,98.36
2022-10-16T06:03:48.577Z,98.03
2022-10-16T06:06:21.326Z,97.46
2022-10-16T06:08:49.075Z,96.23
2022-10-16T06:11:18.223Z,96.43
2022-10-16T06:13:47.305Z,95.82
2022-10-16T06:16:14.436Z,95.02
2022-10-16T06:18:41.435Z,94.64
2022-10-16T06:21:29.210Z,94.11
2022-10-16T06:23:57.543Z,93.61
2022-10-16T06:26:27.129Z,93.16
2022-10-16T06:28:56.390Z,92.45
2022-10-16T06:31:23.865Z,91.56
2022-10-16T06:33:54.185Z,90.69
2022-10-16T06:36:21.774Z,90.60
2022-10-16T06:38:48.436Z,90.16
2022-10-16T06:41:18.794Z,89.82
2022-10-16T06:43:46.553Z,89.68
2022-10-16T06:46:16.404Z,88.52
2022-10-16T06:48:43.250Z,87.70
2022-10-16T06:51:14.429Z,87.57
2022-10-16T06:54:01.896Z,86.68
2022-10-16T06:56:31.419Z,86.18
2022-10-16T06:58:58.067Z,85.65
2022-10-16T07:01:26.738Z,85.59
2022-10-16T07:03:53.820Z,85.21
2022-10-16T07:06:23.609Z,84.64
2022-10-16T07:08:50.782Z,84.60
2022-10-16T07:11:22.750Z,84.28
2022-10-16T07:13:54.390Z,84.21
2022-10-16T07:16:25.842Z,83.01
2022-10-16T07:18:55.380Z,83.13
2022-10-16T07:21:24.063Z,82.92
2022-10-16T07:24:00.273Z,81.43
2022-10-16T07:26:28.365Z,80.84
2022-10-16T07:28:55.340Z,79.76
2022-10-16T07:31:22.366Z,79.87
2022-10-16T07:33:49.802Z,79.89
2022-10-16T07:36:18.893Z,79.15
2022-10-16T07:38:47.143Z,78.27
2022-10-16T07:41:17.238Z,77.20
2022-10-16T07:43:51.640Z,76.44
2022-10-16T07:46:20.300Z,75.63
2022-10-16T07:48:48.267Z,75.97
2022-10-16T07:51:16.774Z,75.43
2022-10-16T07:53:43.365Z,74.34
2022-10-16T07:56:10.382Z,72.73
2022-10-16T07:58:38.265Z,71.18
2022-10-16T08:01:10.334Z,70.13
2022-10-16T08:03:37.417Z,70.34
2022-10-16T08:06:05.303Z,69.93
2022-10-16T08:08:32.077Z,69.32
2022-10-16T08:10:58.694Z,68.85
2022-10-16T08:13:25.387Z,68.83
2022-10-16T08:15:51.928Z,69.44
2022-10-16T08:18:19.079Z,68.60
2022-10-16T08:21:00.027Z,68.07
2022-10-16T08:23:27.767Z,67.61
2022-10-16T08:25:55.289Z,67.42
2022-10-16T08:28:23.031Z,67.02
2022-10-16T08:30:49.718Z,66.55
2022-10-16T08:33:16.386Z,66.23
2022-10-16T08:35:43.014Z,65.28
2022-10-16T08:38:10.270Z,64.75
2022-10-16T08:40:38.294Z,63.50
2022-10-16T08:43:15.382Z,62.39
2022-10-16T08:46:20.374Z,61.58
2022-10-16T08:48:52.727Z,61.29
2022-10-16T08:51:25.923Z,60.78
2022-10-16T08:53:56.504Z,60.49
2022-10-16T08:56:24.347Z,60.16
2022-10-16T08:58:55.188Z,59.58
2022-10-16T09:01:36.467Z,59.20
2022-10-16T09:04:29.092Z,58.57
2022-10-16T09:07:26.452Z,59.44
2022-10-16T09:10:01.980Z,59.28
2022-10-16T09:12:43.582Z,58.45
2022-10-16T09:15:25.675Z,59.51
2022-10-16T09:18:15.886Z,59.05
2022-10-16T09:21:15.456Z,58.01
2022-10-16T09:23:42.103Z,58.03
2022-10-16T09:26:13.893Z,57.00
2022-10-16T09:28:41.314Z,55.55
2022-10-16T09:31:17.033Z,55.45
2022-10-16T09:33:46.320Z,56.47
2022-10-16T09:36:14.735Z,56.07
2022-10-16T09:38:41.583Z,55.70
2022-10-16T09:41:24.757Z,56.13
2022-10-16T09:43:59.995Z,55.50
2022-10-16T09:46:34.099Z,54.28
2022-10-16T09:49:02.897Z,54.55
2022-10-16T09:51:37.674Z,54.16
2022-10-16T09:54:16.801Z,54.09
2022-10-16T09:56:46.560Z,53.03
2022-10-16T09:59:16.160Z,52.15
2022-10-16T10:01:51.900Z,52.05
2022-10-16T10:04:23.675Z,52.68
2022-10-16T10:06:55.330Z,50.52
2022-10-16T10:09:21.762Z,50.45
2022-10-16T10:11:54.350Z,49.74
2022-10-16T10:14:39.601Z,49.05
2022-10-16T10:17:06.063Z,49.38
2022-10-16T10:19:51.031Z,49.26
2022-10-16T10:22:33.110Z,48.01
2022-10-16T10:25:14.750Z,47.64
2022-10-16T10:28:19.272Z,50.27
2022-10-16T10:31:04.179Z,48.50
2022-10-16T10:33:54.779Z,47.84
2022-10-16T10:36:39.041Z,45.92
2022-10-16T10:42:31.186Z,47.18
2022-10-16T10:45:17.997Z,47.97
2022-10-16T10:48:14.377Z,47.26
2022-10-16T10:50:46.595Z,45.52
2022-10-16T10:53:25.937Z,46.37
2022-10-16T10:56:05.617Z,45.58
2022-10-16T10:59:00.251Z,45.57
2022-10-16T11:01:47.536Z,45.55
2022-10-16T11:04:14.146Z,46.16
2022-10-16T11:06:45.599Z,45.32
2022-10-16T11:09:19.056Z,45.50
2022-10-16T11:11:50.000Z,44.99
2022-10-16T11:14:22.409Z,42.81
2022-10-16T11:17:01.789Z,43.29
2022-10-16T11:19:31.139Z,43.21
2022-10-16T11:22:06.020Z,45.72
2022-10-16T11:24:32.584Z,43.15
2022-10-16T11:27:05.502Z,41.30
2022-10-16T11:29:35.930Z,40.03
2022-10-16T11:32:35.212Z,41.12
2022-10-16T11:35:15.307Z,42.47
2022-10-16T11:37:45.581Z,41.17
2022-10-16T11:40:44.563Z,41.15
2022-10-16T11:43:16.376Z,40.51
2022-10-16T11:46:06.477Z,41.97
2022-10-16T11:48:46.625Z,40.11
2022-10-16T11:51:39.913Z,39.92
2022-10-16T11:54:28.098Z,41.53
2022-10-16T11:57:00.560Z,40.88
2022-10-16T11:59:27.065Z,40.55
2022-10-16T12:02:15.679Z,38.89
2022-10-16T12:04:51.921Z,38.97
2022-10-16T12:07:28.918Z,39.91
2022-10-16T12:09:57.299Z,40.01
2022-10-16T12:12:38.611Z,39.33
2022-10-16T12:15:46.940Z,38.12
2022-10-16T12:18:25.995Z,37.42
2022-10-16T12:21:08.727Z,37.08
2022-10-16T12:23:47.520Z,36.60
2022-10-16T12:26:14.466Z,37.38
2022-10-16T12:28:41.735Z,37.18
2022-10-16T12:31:13.744Z,36.19
2022-10-16T12:34:01.057Z,35.94
2022-10-16T12:36:34.464Z,36.40
2022-10-16T12:39:02.239Z,36.14
2022-10-16T12:41:40.813Z,35.21
2022-10-16T12:44:24.578Z,35.54
2022-10-16T12:46:52.003Z,34.70
2022-10-16T12:49:39.650Z,34.60
2022-10-16T12:52:24.942Z,34.44
2022-10-16T12:54:52.175Z,34.62
2022-10-16T12:58:01.058Z,35.36
2022-10-16T13:00:51.989Z,34.75
2022-10-16T13:03:43.559Z,34.28
2022-10-16T13:06:35.481Z,34.64
2022-10-16T13:09:20.212Z,34.48
2022-10-16T13:11:58.764Z,34.75
2022-10-16T13:14:25.435Z,34.89
2022-10-16T13:17:14.602Z,34.86
2022-10-16T13:19:49.854Z,34.38
2022-10-16T13:22:40.214Z,34.06
2022-10-16T13:25:39.531Z,33.70
2022-10-16T13:28:11.352Z,34.88
2022-10-16T13:30:42.680Z,34.88
2022-10-16T13:33:15.638Z,34.74
2022-10-16T13:35:51.565Z,34.59
2022-10-16T13:38:22.203Z,34.30
2022-10-16T13:41:03.754Z,34.42
2022-10-16T13:43:43.576Z,34.74
2022-10-16T13:46:16.534Z,34.27
2022-10-16T13:48:43.904Z,34.08
2022-10-16T13:51:19.044Z,34.18
2022-10-16T13:53:46.760Z,34.70
2022-10-16T13:56:20.596Z,34.85
2022-10-16T13:58:48.371Z,34.90
2022-10-16T14:01:19.337Z,34.14
2022-10-16T14:03:47.711Z,33.64
2022-10-16T14:06:22.959Z,34.07
2022-10-16T14:08:55.598Z,33.46
2022-10-16T14:11:27.148Z,33.35
2022-10-16T14:13:54.608Z,33.52
2022-10-16T14:16:24.554Z,34.57
2022-10-16T14:19:03.448Z,34.57
2022-10-16T14:21:30.375Z,34.20
2022-10-16T14:23:57.315Z,35.11
2022-10-16T14:26:26.835Z,35.87
2022-10-16T14:29:15.469Z,34.59
2022-10-16T14:31:42.886Z,35.15
2022-10-16T14:34:28.445Z,35.32
2022-10-16T14:37:02.022Z,35.38
2022-10-16T14:39:29.357Z,35.15
2022-10-16T14:41:58.716Z,34.95
2022-10-16T14:44:30.914Z,34.55
2022-10-16T14:46:58.166Z,34.31
2022-10-16T14:49:25.261Z,35.50
2022-10-16T14:51:53.065Z,35.40
2022-10-16T14:54:20.568Z,35.94
2022-10-16T14:56:56.662Z,35.39
2022-10-16T14:59:33.050Z,35.20
2022-10-16T15:01:59.839Z,33.89
2022-10-16T15:04:26.468Z,34.19
2022-10-16T15:06:53.169Z,33.72
2022-10-16T15:09:19.850Z,34.48
2022-10-16T15:11:47.600Z,35.49
2022-10-16T15:16:47.060Z,36.35
2022-10-16T15:19:13.805Z,36.01
2022-10-16T15:21:41.116Z,36.84
2022-10-16T15:24:15.335Z,38.11
2022-10-16T15:26:46.943Z,39.09
2022-10-16T15:29:14.072Z,40.02
2022-10-16T15:31:43.528Z,41.59
2022-10-16T15:34:11.190Z,43.77
2022-10-16T15:36:39.382Z,44.89
2022-10-16T15:39:17.444Z,46.54
2022-10-16T15:41:46.520Z,47.58
2022-10-16T15:44:13.161Z,48.75
2022-10-16T15:46:39.842Z,50.05
2022-10-16T15:49:07.013Z,50.93
2022-10-16T15:51:35.068Z,51.67
2022-10-16T15:54:02.874Z,51.93
2022-10-16T15:56:34.170Z,54.47
2022-10-16T15:59:03.946Z,55.63
2022-10-16T16:01:39.012Z,57.92
2022-10-16T16:04:15.232Z,58.74
2022-10-16T16:06:52.801Z,59.97
2022-10-16T16:09:20.528Z,61.32
2022-10-16T16:11:48.524Z,62.29
2022-10-16T16:14:16.666Z,62.78
2022-10-16T16:16:44.724Z,63.93
2022-10-16T16:19:11.914Z,64.83
2022-10-16T16:21:42.262Z,65.09
2022-10-16T16:24:09.917Z,65.75
2022-10-16T16:26:44.544Z,66.51
2022-10-16T16:29:14.170Z,67.04
2022-10-16T16:31:43.088Z,67.58
2022-10-16T16:34:10.020Z,67.68
2022-10-16T16:36:37.980Z,68.73
2022-10-16T16:39:05.905Z,68.90
2022-10-16T16:41:33.950Z,69.24
2022-10-16T16:44:14.415Z,69.53
2022-10-16T16:46:44.392Z,69.71
2022-10-16T16:49:13.829Z,70.19
2022-10-16T16:51:43.062Z,70.29
2022-10-16T16:54:11.698Z,70.42
2022-10-16T16:56:43.549Z,70.86
2022-10-16T16:59:18.876Z,71.18
2022-10-16T17:01:49.130Z,71.40
2022-10-16T17:04:19.902Z,71.48
2022-10-16T17:06:46.777Z,72.13
2022-10-16T17:09:14.879Z,72.04
2022-10-16T17:11:45.535Z,72.10
2022-10-16T17:14:12.647Z,72.77
2022-10-16T17:16:41.238Z,72.93
2022-10-16T17:19:12.875Z,72.71
2022-10-16T17:21:46.379Z,73.24
2022-10-16T17:24:14.705Z,73.35
2022-10-16T17:26:48.751Z,73.26
2022-10-16T17:29:18.903Z,73.66
2022-10-16T17:31:49.980Z,73.72
2022-10-16T17:34:16.919Z,74.70
2022-10-16T17:36:46.915Z,74.46
2022-10-16T17:39:19.785Z,74.79
2022-10-16T17:41:52.706Z,75.67
2022-10-16T17:44:22.262Z,76.15
2022-10-16T17:46:53.950Z,75.99
2022-10-16T17:49:22.108Z,76.13
2022-10-16T17:51:55.450Z,76.68
2022-10-16T17:54:22.166Z,77.00
2022-10-16T17:56:50.164Z,77.85
2022-10-16T17:59:17.945Z,77.42
2022-10-16T18:01:46.431Z,78.00
2022-10-16T18:04:16.276Z,77.79
2022-10-16T18:06:44.950Z,77.96
2022-10-16T18:09:18.059Z,78.21
2022-10-16T18:11:46.095Z,77.98
2022-10-16T18:14:15.623Z,78.49
2022-10-16T18:16:43.872Z,78.49
2022-10-16T18:19:12.104Z,79.50
2022-10-16T18:21:40.539Z,78.60
2022-10-16T18:24:09.679Z,78.52
2022-10-16T18:26:38.502Z,78.84
2022-10-16T18:29:06.641Z,78.50
2022-10-16T18:31:37.753Z,78.67
2022-10-16T18:34:07.380Z,77.95
2022-10-16T18:36:35.746Z,77.68
2022-10-16T18:39:09.493Z,77.90
2022-10-16T18:41:40.393Z,78.31
2022-10-16T18:44:08.286Z,77.84
2022-10-16T18:46:34.975Z,78.12
2022-10-16T18:49:01.866Z,77.92
2022-10-16T18:51:32.579Z,78.07
2022-10-16T18:54:02.057Z,77.64
2022-10-16T18:56:30.620Z,77.88
2022-10-16T18:59:00.012Z,78.07
2022-10-16T19:01:29.834Z,78.04
2022-10-16T19:03:58.925Z,78.21
2022-10-16T19:06:27.160Z,78.29
2022-10-16T19:08:55.805Z,78.11
2022-10-16T19:11:24.661Z,78.38
2022-10-16T19:13:52.396Z,78.37
2022-10-16T19:16:22.870Z,79.25
2022-10-16T19:18:52.297Z,79.70
2022-10-16T19:21:19.293Z,79.47
2022-10-16T19:23:46.185Z,79.84
2022-10-16T19:26:16.102Z,79.81
2022-10-16T19:28:43.948Z,80.32
2022-10-16T19:31:13.946Z,80.41
2022-10-16T19:33:41.320Z,80.68
2022-10-16T19:36:12.295Z,81.15
2022-10-16T19:38:42.802Z,82.03
2022-10-16T19:41:14.955Z,83.18
2022-10-16T19:43:42.287Z,84.11
2022-10-16T19:46:11.179Z,85.23
2022-10-16T19:48:38.498Z,86.61
2022-10-16T19:51:05.322Z,86.92
2022-10-16T19:53:32.379Z,87.82
2022-10-16T19:55:59.806Z,88.81
2022-10-16T19:58:27.735Z,89.46
2022-10-16T20:00:55.861Z,88.54
2022-10-16T20:03:22.507Z,88.86
2022-10-16T20:05:55.067Z,88.67
2022-10-16T20:08:24.010Z,88.32
2022-10-16T20:10:55.573Z,87.97
2022-10-16T20:13:22.574Z,87.45
2022-10-16T20:15:50.602Z,86.99
2022-10-16T20:18:17.401Z,86.53
2022-10-16T20:20:49.395Z,86.57
2022-10-16T20:23:15.983Z,86.00
2022-10-16T20:25:45.921Z,86.20
2022-10-16T20:28:15.848Z,86.15
2022-10-16T20:30:45.326Z,85.95
2022-10-16T20:33:12.687Z,86.03
2022-10-16T20:35:47.005Z,86.52
2022-10-16T20:38:14.738Z,87.40
2022-10-16T20:40:44.167Z,87.99
2022-10-16T20:43:16.292Z,89.01
2022-10-16T20:45:43.559Z,89.13
2022-10-16T20:48:11.449Z,89.57
2022-10-16T20:50:38.607Z,90.07
2022-10-16T20:53:05.789Z,90.24
2022-10-16T20:55:35.911Z,90.06
2022-10-16T20:58:02.908Z,90.23
2022-10-16T21:00:29.563Z,90.69
2022-10-16T21:02:57.345Z,91.19
2022-10-16T21:05:24.119Z,92.67
2022-10-16T21:07:50.735Z,93.35
2022-10-16T21:10:17.639Z,94.49
2022-10-16T21:12:47.916Z,95.20
2022-10-16T21:15:15.904Z,95.57
2022-10-16T21:17:42.610Z,96.16
2022-10-16T21:20:09.553Z,97.58
2022-10-16T21:22:36.281Z,97.28
2022-10-16T21:25:02.883Z,97.52
2022-10-16T21:27:29.450Z,96.80
2022-10-16T21:29:57.090Z,96.01
2022-10-16T21:32:25.398Z,95.06
2022-10-16T21:34:53.901Z,93.27
2022-10-16T21:37:21.561Z,91.89
2022-10-16T21:39:48.111Z,90.63
2022-10-16T21:42:16.165Z,89.77
2022-10-16T21:44:42.761Z,89.47
2022-10-16T21:47:10.564Z,89.07
2022-10-16T21:49:38.481Z,88.86
2022-10-16T21:52:06.840Z,88.68
2022-10-16T21:54:34.657Z,88.31
2022-10-16T21:59:35.296Z,87.54
2022-10-16T22:02:03.382Z,88.17
2022-10-16T22:04:31.236Z,87.65
2022-10-16T22:06:59.928Z,87.72
2022-10-16T22:09:27.488Z,87.68
2022-10-16T22:11:55.470Z,87.13
2022-10-16T22:14:23.176Z,87.08
2022-10-16T22:16:51.366Z,86.69
2022-10-16T22:19:20.427Z,86.49
2022-10-16T22:21:49.249Z,86.57
2022-10-16T22:24:17.012Z,86.49
2022-10-16T22:26:45.554Z,86.73
2022-10-16T22:29:14.402Z,86.24
2022-10-16T22:31:43.311Z,86.61
2022-10-16T22:34:12.382Z,86.52
2022-10-16T22:36:40.337Z,86.83
2022-10-16T22:39:08.224Z,86.87
2022-10-16T22:41:36.290Z,86.87
2022-10-16T22:44:04.331Z,86.88
2022-10-16T22:46:32.379Z,86.69
2022-10-16T22:49:00.244Z,86.48
2022-10-16T22:51:28.144Z,86.04
2022-10-16T22:53:57.964Z,85.88
2022-10-16T22:56:26.572Z,85.59
2022-10-16T22:58:53.350Z,85.51
2022-10-16T23:01:30.027Z,85.63
2022-10-16T23:03:57.789Z,85.17
2022-10-16T23:06:25.587Z,85.35
2022-10-16T23:09:03.591Z,85.46
2022-10-16T23:11:33.331Z,85.35
2022-10-16T23:14:00.969Z,85.06
2022-10-16T23:16:27.626Z,85.53
2022-10-16T23:18:54.350Z,84.98
2022-10-16T23:21:24.971Z,85.02
2022-10-16T23:23:54.281Z,85.02
2022-10-16T23:26:25.148Z,85.39
2022-10-16T23:28:53.481Z,85.55
2022-10-16T23:31:21.545Z,85.58
2022-10-16T23:33:49.351Z,86.43
2022-10-16T23:36:19.582Z,86.00
2022-10-16T23:38:47.099Z,85.97
2022-10-16T23:41:16.669Z,86.14
2022-10-16T23:43:45.238Z,86.43
2022-10-16T23:46:14.375Z,86.69
2022-10-16T23:48:42.691Z,86.79
2022-10-16T23:51:10.373Z,87.20
2022-10-16T23:53:38.881Z,87.51
2022-10-16T23:56:06.932Z,88.36
2022-10-16T23:58:34.659Z,88.35
